Time;durP1;ratioP1;P1;durP2;ratioP2;P2;SDS_P1;SDS_P2;PMS_P1;PMS_P2;Temp;Humidity;BMP_temperature;BMP_pressure;BME280_temperature;BME280_humidity;BME280_pressure;Samples;Min_cycle;Max_cycle;Signal;HPM_P1;HPM_P2
2021/04/08 00:00:31;;;;;;;8.52;3.20;;;3.20;1.00;;;;;;5072323;28;20220;-76
2021/04/08 00:02:58;;;;;;;8.90;3.28;;;3.20;1.00;;;;;;5044981;28;20236;-76
2021/04/08 00:05:25;;;;;;;8.77;3.20;;;3.20;1.00;;;;;;5068132;28;20270;-76
2021/04/08 00:07:51;;;;;;;7.05;3.28;;;3.10;1.00;;;;;;5062318;28;20294;-77
2021/04/08 00:10:19;;;;;;;5.25;2.78;;;3.00;1.00;;;;;;5081206;28;20239;-77
2021/04/08 00:12:45;;;;;;;6.10;2.75;;;3.00;1.00;;;;;;5048213;28;20271;-77
2021/04/08 00:15:15;;;;;;;9.00;2.72;;;3.00;1.00;;;;;;5060262;28;20246;-75
2021/04/08 00:17:42;;;;;;;4.85;2.72;;;3.00;1.00;;;;;;5047452;28;20221;-77
2021/04/08 00:20:18;;;;;;;8.52;3.30;;;3.00;1.00;;;;;;5075975;28;20305;-75
2021/04/08 00:22:44;;;;;;;8.43;3.13;;;3.00;1.00;;;;;;5078793;27;20333;-77
2021/04/08 00:25:13;;;;;;;7.78;3.13;;;3.00;1.00;;;;;;5055811;28;20639;-75
2021/04/08 00:27:40;;;;;;;6.05;2.67;;;3.10;1.00;;;;;;5061474;28;20310;-77
2021/04/08 00:30:08;;;;;;;14.05;3.28;;;3.00;1.00;;;;;;5074966;28;21146;-78
2021/04/08 00:32:35;;;;;;;7.07;3.30;;;3.10;1.00;;;;;;5047623;28;22432;-76
2021/04/08 00:35:01;;;;;;;6.38;3.50;;;3.10;1.00;;;;;;5064464;28;20220;-79
2021/04/08 00:37:27;;;;;;;6.25;2.78;;;3.10;1.00;;;;;;5064165;28;20255;-80
2021/04/08 00:39:54;;;;;;;6.95;2.97;;;3.20;1.00;;;;;;5065904;28;20311;-79
2021/04/08 00:42:22;;;;;;;8.57;2.65;;;3.10;1.00;;;;;;5067529;28;20232;-79
2021/04/08 00:44:50;;;;;;;7.45;3.03;;;3.20;1.00;;;;;;5073679;28;20923;-79
2021/04/08 00:47:16;;;;;;;8.13;3.08;;;3.20;1.00;;;;;;5086468;28;20247;-80
2021/04/08 00:49:43;;;;;;;4.10;3.00;;;3.20;1.00;;;;;;5081890;28;20325;-80
2021/04/08 00:52:09;;;;;;;6.47;2.95;;;3.20;1.00;;;;;;5083556;28;20229;-80
2021/04/08 00:54:36;;;;;;;9.50;3.05;;;3.20;1.00;;;;;;5080164;28;20910;-79
2021/04/08 00:57:03;;;;;;;10.18;4.20;;;3.20;1.00;;;;;;5099382;27;20225;-80
2021/04/08 00:59:30;;;;;;;4.05;2.30;;;3.30;1.00;;;;;;5069902;28;20227;-81
2021/04/08 01:01:57;;;;;;;11.55;3.30;;;3.20;1.00;;;;;;5073888;28;20228;-79
2021/04/08 01:04:24;;;;;;;4.65;3.00;;;3.30;1.00;;;;;;5066376;28;20231;-76
2021/04/08 01:06:51;;;;;;;10.45;3.97;;;3.20;1.00;;;;;;5071996;28;20228;-78
2021/04/08 01:09:17;;;;;;;8.63;3.58;;;3.30;1.00;;;;;;5066881;28;20247;-79
2021/04/08 01:11:44;;;;;;;8.43;3.15;;;3.30;1.00;;;;;;5089179;27;20263;-79
2021/04/08 01:14:11;;;;;;;5.05;3.22;;;3.30;1.00;;;;;;5070423;28;20236;-79
2021/04/08 01:16:44;;;;;;;7.82;3.10;;;3.30;1.00;;;;;;5092896;27;20253;-78
2021/04/08 01:19:35;;;;;;;5.57;3.30;;;3.30;1.00;;;;;;5083365;27;20295;-80
2021/04/08 01:22:12;;;;;;;6.07;4.72;;;3.30;1.00;;;;;;5079839;28;20224;-78
2021/04/08 01:24:52;;;;;;;10.15;3.72;;;3.20;1.00;;;;;;5072216;28;20890;-78
2021/04/08 01:27:31;;;;;;;5.53;3.80;;;3.20;1.00;;;;;;5082264;28;20314;-79
2021/04/08 01:30:39;;;;;;;6.10;3.25;;;3.20;1.00;;;;;;5072723;28;20215;-81
2021/04/08 01:33:10;;;;;;;6.55;4.00;;;3.30;1.00;;;;;;5078882;28;20247;-78
2021/04/08 01:35:41;;;;;;;6.53;3.60;;;3.30;1.00;;;;;;5071372;28;20228;-77
2021/04/08 01:38:11;;;;;;;6.18;4.03;;;3.30;1.00;;;;;;5097277;28;20220;-77
2021/04/08 01:40:44;;;;;;;8.27;3.90;;;3.40;1.00;;;;;;5074668;28;20267;-79
2021/04/08 01:43:12;;;;;;;7.00;3.28;;;3.30;1.00;;;;;;5093797;27;20228;-79
2021/04/08 01:45:40;;;;;;;6.65;4.15;;;3.30;1.00;;;;;;5084455;27;20232;-79
2021/04/08 01:48:08;;;;;;;8.02;3.58;;;3.30;1.00;;;;;;5062187;28;20322;-80
2021/04/08 01:50:35;;;;;;;8.90;3.65;;;3.40;1.00;;;;;;5052204;28;20348;-79
2021/04/08 01:53:06;;;;;;;12.07;3.60;;;3.40;1.00;;;;;;5075221;28;20220;-78
2021/04/08 01:55:35;;;;;;;7.45;3.95;;;3.40;1.00;;;;;;5066426;28;20226;-80
2021/04/08 01:58:03;;;;;;;8.65;3.47;;;3.40;1.00;;;;;;5093735;27;20404;-80
2021/04/08 02:00:30;;;;;;;7.88;4.15;;;3.40;1.00;;;;;;5075561;28;20228;-80
2021/04/08 02:02:57;;;;;;;10.82;3.92;;;3.40;1.00;;;;;;5065346;28;20228;-79
2021/04/08 02:05:25;;;;;;;7.57;3.40;;;3.40;1.00;;;;;;5076821;28;21177;-78
2021/04/08 02:07:53;;;;;;;8.82;5.10;;;3.40;1.00;;;;;;5067965;28;20223;-79
2021/04/08 02:10:22;;;;;;;10.68;3.47;;;3.40;1.00;;;;;;5082150;28;20219;-79
2021/04/08 02:12:50;;;;;;;10.05;4.30;;;3.40;1.00;;;;;;5064026;28;20233;-82
2021/04/08 02:15:18;;;;;;;8.30;3.30;;;3.40;1.00;;;;;;5075834;28;20659;-79
2021/04/08 02:17:46;;;;;;;11.18;3.78;;;3.40;1.00;;;;;;5064798;28;20232;-79
2021/04/08 02:20:16;;;;;;;14.80;5.03;;;3.40;1.00;;;;;;5079668;28;20236;-78
2021/04/08 02:22:44;;;;;;;6.80;3.50;;;3.40;1.00;;;;;;5074692;28;20234;-79
2021/04/08 02:25:13;;;;;;;7.93;4.05;;;3.40;1.00;;;;;;5084256;28;20312;-79
2021/04/08 02:27:40;;;;;;;7.45;3.80;;;3.40;1.00;;;;;;5078837;28;20401;-80
2021/04/08 02:30:09;;;;;;;10.27;3.85;;;3.40;1.00;;;;;;5070259;28;20930;-79
2021/04/08 02:32:37;;;;;;;6.50;3.88;;;3.40;1.00;;;;;;5065762;28;20299;-79
2021/04/08 02:35:07;;;;;;;10.68;4.10;;;3.40;1.00;;;;;;5083584;28;20236;-81
2021/04/08 02:37:34;;;;;;;7.10;3.97;;;3.40;1.00;;;;;;5069665;28;20327;-79
2021/04/08 02:40:00;;;;;;;8.48;4.40;;;3.40;1.00;;;;;;5075880;28;20301;-79
2021/04/08 02:42:26;;;;;;;7.85;3.95;;;3.40;1.00;;;;;;5051864;28;20294;-79
2021/04/08 02:44:53;;;;;;;7.97;3.88;;;3.40;1.00;;;;;;5084903;28;20243;-78
2021/04/08 02:47:20;;;;;;;7.55;4.03;;;3.40;1.00;;;;;;5083826;28;20227;-80
2021/04/08 02:49:46;;;;;;;8.40;3.85;;;3.40;1.00;;;;;;5085759;27;21074;-78
2021/04/08 02:52:23;;;;;;;12.02;4.05;;;3.40;1.00;;;;;;5067169;28;20231;-78
2021/04/08 02:55:02;;;;;;;13.85;4.80;;;3.40;1.00;;;;;;5075100;28;20292;-79
2021/04/08 02:57:36;;;;;;;6.28;3.35;;;3.40;1.00;;;;;;5092697;28;20254;-79
2021/04/08 03:00:07;;;;;;;8.52;3.75;;;3.40;1.00;;;;;;5098564;28;21119;-78
2021/04/08 03:02:38;;;;;;;9.05;3.85;;;3.50;1.00;;;;;;5113819;27;20235;-80
2021/04/08 03:05:07;;;;;;;13.82;4.60;;;3.40;1.00;;;;;;5101928;27;21027;-79
2021/04/08 03:07:41;;;;;;;8.52;3.63;;;3.50;1.00;;;;;;5114978;27;20247;-80
2021/04/08 03:10:12;;;;;;;11.13;4.80;;;3.50;1.00;;;;;;5107004;27;20420;-80
2021/04/08 03:12:44;;;;;;;9.00;5.80;;;3.50;1.00;;;;;;5112884;27;20219;-80
2021/04/08 03:15:15;;;;;;;8.25;5.25;;;3.50;1.00;;;;;;5098337;27;20224;-78
2021/04/08 03:17:44;;;;;;;5.13;3.92;;;3.50;1.00;;;;;;5106097;28;20284;-80
2021/04/08 03:20:16;;;;;;;9.55;5.20;;;3.50;1.00;;;;;;5094236;28;20814;-79
2021/04/08 03:22:46;;;;;;;10.75;5.00;;;3.40;1.00;;;;;;5104684;28;20220;-79
2021/04/08 03:25:14;;;;;;;10.93;5.13;;;3.40;1.00;;;;;;5092853;28;20240;-77
2021/04/08 03:27:41;;;;;;;10.50;4.40;;;3.30;1.00;;;;;;5104835;28;20225;-79
2021/04/08 03:30:13;;;;;;;9.25;4.93;;;3.30;1.00;;;;;;5092258;28;20299;-80
2021/04/08 03:32:40;;;;;;;8.38;5.50;;;3.30;1.00;;;;;;5073710;28;20221;-80
2021/04/08 03:35:08;;;;;;;8.63;4.55;;;3.30;1.00;;;;;;5074502;28;20228;-80
2021/04/08 03:37:35;;;;;;;10.45;4.80;;;3.30;1.00;;;;;;5085389;28;20235;-80
2021/04/08 03:40:03;;;;;;;6.80;3.50;;;3.30;1.00;;;;;;5065470;28;20255;-79
2021/04/08 03:42:34;;;;;;;4.63;3.38;;;3.30;1.00;;;;;;5095192;28;20288;-79
2021/04/08 03:45:02;;;;;;;8.82;4.35;;;3.30;1.00;;;;;;5082471;28;20246;-77
2021/04/08 03:47:29;;;;;;;12.30;6.90;;;3.30;1.00;;;;;;5072131;28;20251;-77
2021/04/08 03:49:56;;;;;;;11.43;5.30;;;3.30;1.00;;;;;;5085215;28;20228;-80
2021/04/08 03:52:23;;;;;;;8.43;4.30;;;3.30;1.00;;;;;;5098515;28;20227;-81
2021/04/08 03:54:54;;;;;;;8.82;4.78;;;3.30;1.00;;;;;;5119097;27;20224;-78
2021/04/08 03:57:22;;;;;;;7.13;4.47;;;3.20;1.00;;;;;;5090711;28;20216;-79
2021/04/08 03:59:53;;;;;;;16.02;4.93;;;3.20;1.00;;;;;;5101545;28;20219;-76
2021/04/08 04:02:21;;;;;;;9.18;4.93;;;3.10;1.00;;;;;;5088539;28;20217;-81
2021/04/08 04:04:50;;;;;;;10.68;5.05;;;3.00;1.00;;;;;;5098687;28;20259;-79
2021/04/08 04:07:17;;;;;;;6.93;5.00;;;2.90;1.00;;;;;;5089410;28;20211;-78
2021/04/08 04:09:44;;;;;;;11.40;5.80;;;2.70;1.00;;;;;;5095827;28;20406;-78
2021/04/08 04:12:15;;;;;;;5.15;4.65;;;2.60;1.00;;;;;;5082642;28;20224;-79
2021/04/08 04:14:43;;;;;;;6.05;4.55;;;2.60;1.00;;;;;;5095710;28;20212;-79
2021/04/08 04:17:25;;;;;;;14.63;6.22;;;2.50;1.00;;;;;;5079668;28;20216;-76
2021/04/08 04:19:51;;;;;;;10.52;5.85;;;2.40;1.00;;;;;;5101351;28;20383;-76
2021/04/08 04:22:18;;;;;;;12.98;5.80;;;2.30;1.00;;;;;;5076676;28;20688;-75
2021/04/08 04:24:44;;;;;;;9.43;5.60;;;2.20;1.00;;;;;;5097713;28;20287;-75
2021/04/08 04:27:11;;;;;;;14.40;6.25;;;2.00;1.00;;;;;;5070482;28;20235;-76
2021/04/08 04:29:37;;;;;;;14.40;7.10;;;2.00;1.00;;;;;;5084474;28;20227;-75
2021/04/08 04:32:04;;;;;;;11.38;7.38;;;2.00;1.00;;;;;;5084095;28;20239;-75
2021/04/08 04:34:35;;;;;;;15.05;6.15;;;2.10;1.00;;;;;;5106493;27;20224;-75
2021/04/08 04:37:02;;;;;;;12.63;6.40;;;2.10;1.00;;;;;;5084082;28;20879;-75
2021/04/08 04:39:29;;;;;;;8.45;5.10;;;2.20;1.00;;;;;;5102781;27;20223;-76
2021/04/08 04:41:56;;;;;;;9.63;5.63;;;2.20;1.00;;;;;;5087619;27;20215;-74
2021/04/08 04:44:23;;;;;;;9.32;5.13;;;2.30;1.00;;;;;;5097987;27;20220;-76
2021/04/08 04:46:50;;;;;;;16.77;5.70;;;2.20;1.00;;;;;;5104903;28;20323;-75
2021/04/08 04:49:17;;;;;;;12.45;4.95;;;2.30;1.00;;;;;;5087845;27;20324;-76
2021/04/08 04:51:44;;;;;;;13.85;6.40;;;2.30;1.00;;;;;;5105348;27;20208;-76
2021/04/08 04:54:11;;;;;;;12.88;6.28;;;2.40;1.00;;;;;;5095445;27;20246;-77
2021/04/08 04:56:37;;;;;;;9.15;5.38;;;2.40;1.00;;;;;;5101061;28;20328;-76
2021/04/08 04:59:04;;;;;;;14.20;6.15;;;2.40;1.00;;;;;;5087373;28;20250;-77
2021/04/08 05:01:30;;;;;;;13.98;6.70;;;2.40;1.00;;;;;;5112218;27;20208;-74
2021/04/08 05:03:57;;;;;;;13.88;5.90;;;2.50;1.00;;;;;;5080934;28;21277;-77
2021/04/08 05:06:24;;;;;;;16.20;5.50;;;2.50;1.00;;;;;;5100028;28;20224;-77
2021/04/08 05:08:54;;;;;;;14.07;6.43;;;2.60;1.00;;;;;;5073533;28;20212;-76
2021/04/08 05:11:20;;;;;;;12.10;5.50;;;2.60;1.00;;;;;;5077728;28;20303;-75
2021/04/08 05:13:46;;;;;;;10.75;5.78;;;2.60;1.00;;;;;;5077957;28;20227;-76
2021/04/08 05:16:12;;;;;;;16.55;6.53;;;2.60;1.00;;;;;;5096952;28;20228;-75
2021/04/08 05:18:39;;;;;;;16.20;7.00;;;2.60;1.00;;;;;;5075864;28;21547;-75
2021/04/08 05:21:06;;;;;;;11.43;7.07;;;2.60;1.00;;;;;;5102524;27;20216;-76
2021/04/08 05:23:33;;;;;;;11.45;6.00;;;2.70;1.00;;;;;;5079665;28;20239;-75
2021/04/08 05:26:00;;;;;;;20.75;7.85;;;2.70;1.00;;;;;;5095592;28;20243;-76
2021/04/08 05:28:26;;;;;;;8.70;5.82;;;2.70;1.00;;;;;;5090034;28;20216;-77
2021/04/08 05:30:53;;;;;;;13.18;6.00;;;2.70;1.00;;;;;;5066662;28;20230;-77
2021/04/08 05:33:20;;;;;;;12.10;5.95;;;2.80;1.00;;;;;;5082115;28;20243;-77
2021/04/08 05:35:47;;;;;;;14.95;6.80;;;2.70;1.00;;;;;;5067267;28;20231;-79
2021/04/08 05:38:19;;;;;;;16.85;7.28;;;2.80;1.00;;;;;;5081442;28;20226;-76
2021/04/08 05:40:51;;;;;;;16.33;5.90;;;2.90;1.00;;;;;;5060190;28;20299;-76
2021/04/08 05:43:18;;;;;;;25.73;6.75;;;2.90;1.00;;;;;;5078357;28;20287;-76
2021/04/08 05:45:45;;;;;;;8.25;5.00;;;3.00;1.00;;;;;;5066885;28;20242;-77
2021/04/08 05:48:12;;;;;;;12.88;5.60;;;3.00;1.00;;;;;;5083924;28;20336;-75
2021/04/08 05:50:38;;;;;;;8.23;6.57;;;3.00;1.00;;;;;;5075785;28;20227;-75
2021/04/08 05:53:05;;;;;;;12.70;5.90;;;3.00;1.00;;;;;;5087425;27;21381;-79
2021/04/08 05:55:31;;;;;;;13.27;5.20;;;2.90;1.00;;;;;;5069294;28;20539;-76
2021/04/08 05:57:58;;;;;;;7.78;4.40;;;2.90;1.00;;;;;;5080697;28;20219;-78
2021/04/08 06:00:25;;;;;;;10.60;5.78;;;3.00;1.00;;;;;;5072886;28;20225;-76
2021/04/08 06:02:51;;;;;;;12.90;6.28;;;3.10;1.00;;;;;;5082871;28;20217;-76
2021/04/08 06:05:18;;;;;;;13.57;5.88;;;3.10;1.00;;;;;;5055854;28;20331;-77
2021/04/08 06:07:45;;;;;;;14.15;5.50;;;3.20;1.00;;;;;;5079588;28;20377;-76
2021/04/08 06:10:12;;;;;;;10.35;6.00;;;3.20;1.00;;;;;;5074636;28;20224;-78
2021/04/08 06:12:40;;;;;;;9.73;5.85;;;3.30;1.00;;;;;;5080006;27;20232;-77
2021/04/08 06:15:08;;;;;;;11.25;5.50;;;3.30;1.00;;;;;;5088652;28;21381;-73
2021/04/08 06:17:36;;;;;;;10.57;5.20;;;3.30;1.00;;;;;;5065930;28;20989;-77
2021/04/08 06:20:03;;;;;;;10.88;5.82;;;3.40;1.00;;;;;;5068247;28;20323;-77
2021/04/08 06:22:44;;;;;;;16.70;7.28;;;3.50;1.00;;;;;;5068536;28;20212;-79
2021/04/08 06:25:18;;;;;;;10.50;6.07;;;3.50;1.00;;;;;;5076993;28;20241;-76
2021/04/08 06:27:45;;;;;;;8.20;6.00;;;3.50;1.00;;;;;;5063083;28;20232;-77
2021/04/08 06:30:17;;;;;;;11.10;5.88;;;3.60;1.00;;;;;;5077271;28;20224;-77
2021/04/08 06:32:44;;;;;;;13.55;6.60;;;3.60;1.00;;;;;;5069143;27;20227;-78
2021/04/08 06:35:11;;;;;;;13.05;6.03;;;3.60;1.00;;;;;;5082962;28;20230;-76
2021/04/08 06:37:38;;;;;;;9.18;5.00;;;3.70;1.00;;;;;;5060686;28;20299;-78
2021/04/08 06:40:05;;;;;;;12.68;5.90;;;3.60;1.00;;;;;;5077295;28;21336;-76
2021/04/08 06:42:35;;;;;;;7.00;4.85;;;3.60;1.00;;;;;;5058290;28;20280;-76
2021/04/08 06:45:03;;;;;;;10.25;5.50;;;3.70;1.00;;;;;;5077192;28;20234;-79
2021/04/08 06:47:38;;;;;;;13.57;5.00;;;3.70;1.00;;;;;;5072974;27;20235;-77
2021/04/08 06:50:08;;;;;;;11.18;6.38;;;3.80;1.00;;;;;;5079062;28;20284;-76
2021/04/08 06:52:38;;;;;;;8.68;5.95;;;3.80;1.00;;;;;;5065181;28;20209;-78
2021/04/08 06:55:06;;;;;;;8.40;5.88;;;3.90;1.00;;;;;;5068489;28;20232;-78
2021/04/08 06:57:34;;;;;;;11.05;5.80;;;3.90;1.00;;;;;;5077423;28;20611;-77
2021/04/08 07:00:02;;;;;;;11.77;5.32;;;4.00;1.00;;;;;;5085067;28;20228;-76
2021/04/08 07:02:32;;;;;;;10.20;5.35;;;4.00;1.00;;;;;;5069393;28;20242;-78
2021/04/08 07:05:01;;;;;;;9.50;6.05;;;4.10;1.00;;;;;;5099312;27;20236;-79
2021/04/08 07:07:32;;;;;;;9.15;5.45;;;4.10;1.00;;;;;;5062637;28;20220;-78
2021/04/08 07:09:59;;;;;;;9.05;5.50;;;4.10;1.00;;;;;;5072573;28;20212;-77
2021/04/08 07:12:25;;;;;;;16.92;6.28;;;4.10;1.00;;;;;;5089062;27;20212;-77
2021/04/08 07:14:53;;;;;;;11.25;5.55;;;4.10;1.00;;;;;;5074147;28;20314;-76
2021/04/08 07:17:20;;;;;;;14.05;6.85;;;4.20;1.00;;;;;;5103454;27;20887;-75
2021/04/08 07:19:46;;;;;;;14.43;6.18;;;4.30;1.00;;;;;;5074558;28;20225;-75
2021/04/08 07:22:14;;;;;;;8.80;5.65;;;4.30;1.00;;;;;;5096378;27;20236;-75
2021/04/08 07:24:46;;;;;;;11.70;6.35;;;4.40;1.00;;;;;;5072444;28;20231;-76
2021/04/08 07:27:18;;;;;;;10.15;6.20;;;4.40;1.00;;;;;;5089309;28;20236;-76
2021/04/08 07:29:52;;;;;;;11.75;6.25;;;4.40;1.00;;;;;;5054078;28;20272;-81
2021/04/08 07:32:30;;;;;;;8.02;5.13;;;4.40;1.00;;;;;;5086992;28;20230;-79
2021/04/08 07:34:58;;;;;;;7.40;5.35;;;4.40;1.00;;;;;;5081114;28;20240;-80
2021/04/08 07:37:27;;;;;;;20.05;8.63;;;4.40;1.00;;;;;;5075297;28;20316;-79
2021/04/08 07:39:55;;;;;;;13.88;5.65;;;4.50;1.00;;;;;;5098611;27;20220;-79
2021/04/08 07:42:26;;;;;;;10.40;5.88;;;4.50;1.00;;;;;;5088974;28;20588;-79
2021/04/08 07:44:54;;;;;;;8.95;4.70;;;4.60;1.00;;;;;;5084128;28;21215;-79
2021/04/08 07:47:24;;;;;;;10.98;4.75;;;4.80;1.00;;;;;;5098429;28;20264;-81
2021/04/08 07:49:52;;;;;;;9.10;5.78;;;4.90;1.00;;;;;;5085204;28;20284;-77
2021/04/08 07:52:22;;;;;;;8.20;5.55;;;5.00;1.00;;;;;;5086577;28;20996;-76
2021/04/08 07:55:02;;;;;;;9.93;4.18;;;5.10;1.00;;;;;;5072798;28;21260;-77
2021/04/08 07:57:29;;;;;;;12.10;5.20;;;5.30;1.00;;;;;;5104734;27;20350;-76
2021/04/08 07:59:56;;;;;;;9.15;5.05;;;5.40;1.00;;;;;;5068442;28;20242;-76
2021/04/08 08:02:24;;;;;;;12.02;6.13;;;5.60;1.00;;;;;;5089576;28;20228;-79
2021/04/08 08:04:50;;;;;;;14.93;8.55;;;5.80;1.00;;;;;;5072527;28;20228;-77
2021/04/08 08:07:27;;;;;;;22.88;13.20;;;6.10;1.00;;;;;;5104431;27;20232;-76
2021/04/08 08:10:00;;;;;;;14.00;8.18;;;6.40;1.00;;;;;;5073918;28;20219;-76
2021/04/08 08:12:32;;;;;;;29.77;19.27;;;6.50;1.00;;;;;;5082778;28;20220;-78
2021/04/08 08:15:18;;;;;;;21.83;13.68;;;6.60;1.00;;;;;;5083496;28;20235;-78
2021/04/08 08:17:45;;;;;;;13.65;9.18;;;6.60;1.00;;;;;;5086701;28;20224;-75
2021/04/08 08:20:15;;;;;;;25.30;16.42;;;6.40;1.00;;;;;;5084921;28;20237;-77
2021/04/08 08:22:47;;;;;;;19.05;12.27;;;6.40;1.00;;;;;;5067677;28;20224;-77
2021/04/08 08:25:16;;;;;;;20.67;13.32;;;6.40;1.00;;;;;;5085088;28;20440;-76
2021/04/08 08:27:46;;;;;;;25.38;20.33;;;6.40;1.00;;;;;;5069780;28;20216;-76
2021/04/08 08:30:20;;;;;;;27.75;17.60;;;6.50;1.00;;;;;;5060082;28;20343;-77
2021/04/08 08:33:08;;;;;;;12.43;5.00;;;6.60;1.00;;;;;;5052402;28;20239;-76
2021/04/08 08:35:35;;;;;;;15.45;5.63;;;6.60;1.00;;;;;;5078452;28;20235;-77
2021/04/08 08:38:09;;;;;;;9.00;4.57;;;6.70;1.00;;;;;;5063825;28;20746;-77
2021/04/08 08:40:36;;;;;;;16.02;8.23;;;6.80;1.00;;;;;;5080429;28;20282;-75
2021/04/08 08:43:22;;;;;;;13.52;6.85;;;6.90;1.00;;;;;;5043524;28;20220;-76
2021/04/08 08:45:49;;;;;;;7.75;3.92;;;7.00;1.00;;;;;;5082232;28;20227;-77
2021/04/08 08:48:21;;;;;;;13.50;3.80;;;7.00;1.00;;;;;;5067056;28;20247;-77
2021/04/08 08:50:55;;;;;;;8.73;3.50;;;7.10;1.00;;;;;;5079942;28;20287;-76
2021/04/08 08:53:22;;;;;;;5.03;3.13;;;7.40;1.00;;;;;;5064908;28;20231;-79
2021/04/08 08:55:52;;;;;;;11.15;3.40;;;7.60;1.00;;;;;;5062974;28;20228;-75
2021/04/08 08:58:19;;;;;;;10.63;3.60;;;7.60;1.00;;;;;;5084600;27;20229;-79
2021/04/08 09:00:47;;;;;;;8.88;2.80;;;7.60;1.00;;;;;;5083089;28;20235;-80
2021/04/08 09:03:14;;;;;;;6.05;2.10;;;7.50;1.00;;;;;;5057371;28;20216;-80
2021/04/08 09:05:40;;;;;;;6.72;2.50;;;7.50;1.00;;;;;;5068835;28;22004;-80
2021/04/08 09:08:23;;;;;;;7.53;2.35;;;7.60;1.00;;;;;;5062888;28;20243;-77
2021/04/08 09:10:49;;;;;;;2.85;1.80;;;7.70;1.00;;;;;;5077242;28;20219;-77
2021/04/08 09:13:17;;;;;;;8.60;2.60;;;7.70;1.00;;;;;;5062803;28;20802;-77
2021/04/08 09:15:44;;;;;;;4.50;2.28;;;7.70;1.00;;;;;;5099781;27;20228;-78
2021/04/08 09:18:13;;;;;;;5.20;2.42;;;7.80;1.00;;;;;;5062952;28;20216;-75
2021/04/08 09:20:42;;;;;;;6.15;2.47;;;7.80;1.00;;;;;;5080413;28;20230;-78
2021/04/08 09:23:11;;;;;;;6.22;2.35;;;8.00;1.00;;;;;;5069918;28;20293;-79
2021/04/08 09:25:40;;;;;;;6.85;2.50;;;8.10;1.00;;;;;;5088226;28;20236;-75
2021/04/08 09:28:09;;;;;;;7.82;3.35;;;8.30;1.00;;;;;;5071097;28;20235;-77
2021/04/08 09:30:43;;;;;;;5.72;2.20;;;8.50;1.00;;;;;;5087995;28;20394;-77
2021/04/08 09:33:12;;;;;;;6.65;2.95;;;8.50;1.00;;;;;;5083584;28;20203;-76
2021/04/08 09:35:39;;;;;;;6.47;1.98;;;8.30;1.00;;;;;;5102442;28;20790;-85
2021/04/08 09:38:19;;;;;;;7.85;2.40;;;8.10;1.00;;;;;;5102754;28;20224;-78
2021/04/08 09:40:49;;;;;;;3.55;2.33;;;7.80;1.00;;;;;;5088550;28;20219;-75
2021/04/08 09:43:18;;;;;;;3.40;2.03;;;7.90;1.00;;;;;;5091080;28;20281;-77
2021/04/08 09:45:48;;;;;;;5.80;2.42;;;8.20;1.00;;;;;;5084432;28;20289;-77
2021/04/08 09:48:17;;;;;;;9.65;2.60;;;9.50;1.00;;;;;;5100731;28;20216;-75
2021/04/08 09:50:48;;;;;;;6.28;2.55;;;9.20;1.00;;;;;;5074381;28;20276;-77
2021/04/08 09:53:15;;;;;;;7.43;2.47;;;9.00;1.00;;;;;;5093951;28;20757;-78
2021/04/08 09:55:48;;;;;;;5.68;2.20;;;8.90;1.00;;;;;;5071610;28;20224;-79
2021/04/08 09:58:21;;;;;;;3.53;2.13;;;9.20;1.00;;;;;;5089732;28;20236;-76
2021/04/08 10:00:48;;;;;;;4.27;2.10;;;10.30;1.00;;;;;;5080037;28;20330;-75
2021/04/08 10:03:27;;;;;;;4.57;2.33;;;11.80;1.00;;;;;;5092543;28;21515;-74
2021/04/08 10:05:56;;;;;;;6.03;2.72;;;11.50;1.00;;;;;;5055550;28;20245;-75
2021/04/08 10:08:24;;;;;;;4.45;2.00;;;11.50;1.00;;;;;;5082551;28;20228;-79
2021/04/08 10:10:51;;;;;;;4.55;2.22;;;11.00;1.00;;;;;;5073415;28;20231;-78
2021/04/08 10:13:25;;;;;;;4.57;2.00;;;11.10;1.00;;;;;;5060374;28;20331;-78
2021/04/08 10:15:54;;;;;;;3.27;1.77;;;11.70;1.00;;;;;;5069269;28;20250;-78
2021/04/08 10:18:25;;;;;;;4.87;2.10;;;13.30;1.00;;;;;;5086090;28;20971;-76
2021/04/08 10:20:54;;;;;;;5.87;1.73;;;14.10;1.00;;;;;;5053992;28;20447;-76
2021/04/08 10:23:32;;;;;;;5.53;2.47;;;14.30;1.00;;;;;;5084255;28;20491;-78
2021/04/08 10:25:59;;;;;;;3.30;2.10;;;14.00;1.00;;;;;;5064008;28;20423;-76
2021/04/08 10:28:26;;;;;;;3.60;2.20;;;12.90;1.00;;;;;;5075028;28;20770;-77
2021/04/08 10:30:52;;;;;;;2.30;1.53;;;11.90;1.00;;;;;;5058835;28;20959;-76
2021/04/08 10:33:20;;;;;;;3.50;1.95;;;11.00;1.00;;;;;;5077310;28;20417;-77
2021/04/08 10:35:47;;;;;;;4.13;2.10;;;10.60;1.00;;;;;;5063103;28;20247;-77
2021/04/08 10:38:14;;;;;;;5.07;2.47;;;12.20;1.00;;;;;;5079965;28;20526;-77
2021/04/08 10:40:50;;;;;;;4.77;2.30;;;14.20;1.00;;;;;;5056131;28;20459;-74
2021/04/08 10:43:18;;;;;;;4.53;2.30;;;16.00;1.00;;;;;;5078280;28;20467;-77
2021/04/08 10:45:52;;;;;;;8.03;2.57;;;16.00;1.00;;;;;;5083014;28;20451;-76
2021/04/08 10:48:19;;;;;;;6.30;2.30;;;15.10;1.00;;;;;;5072151;28;20443;-77
2021/04/08 10:50:50;;;;;;;4.53;2.33;;;13.30;1.00;;;;;;5084700;28;20421;-76
2021/04/08 10:53:20;;;;;;;2.37;2.00;;;12.10;1.00;;;;;;5075647;28;20505;-79
2021/04/08 10:55:47;;;;;;;4.95;3.17;;;11.60;1.00;;;;;;5085683;28;20476;-77
2021/04/08 10:58:21;;;;;;;3.97;1.87;;;11.20;1.00;;;;;;5069151;28;20335;-77
2021/04/08 11:00:47;;;;;;;3.40;1.97;;;12.70;1.00;;;;;;5091519;27;20411;-78
2021/04/08 11:03:15;;;;;;;2.70;1.90;;;14.40;1.00;;;;;;5067922;28;24558;-77
2021/04/08 11:05:41;;;;;;;3.70;1.60;;;16.00;1.00;;;;;;5082706;28;21673;-76
2021/04/08 11:08:10;;;;;;;3.10;2.10;;;16.50;1.00;;;;;;5066314;28;20465;-75
2021/04/08 11:10:40;;;;;;;4.23;1.83;;;15.70;1.00;;;;;;5083312;28;21110;-77
2021/04/08 11:13:06;;;;;;;2.50;1.70;;;14.70;1.00;;;;;;5086454;28;21083;-74
2021/04/08 11:15:34;;;;;;;3.50;1.90;;;14.40;1.00;;;;;;5097103;28;20446;-77
2021/04/08 11:18:05;;;;;;;4.90;2.30;;;14.00;1.00;;;;;;5083178;28;20407;-76
2021/04/08 11:20:34;;;;;;;4.63;2.30;;;13.60;1.00;;;;;;5106703;27;20484;-76
2021/04/08 11:23:02;;;;;;;3.20;1.90;;;15.30;1.00;;;;;;5063602;28;20538;-75
2021/04/08 11:25:30;;;;;;;5.80;1.60;;;16.30;1.00;;;;;;5093129;28;20412;-76
2021/04/08 11:28:01;;;;;;;4.60;1.80;;;15.60;1.00;;;;;;5073175;28;20430;-79
2021/04/08 11:30:31;;;;;;;2.20;1.80;;;14.40;1.00;;;;;;5090762;28;20499;-78
2021/04/08 11:32:59;;;;;;;5.77;2.03;;;13.40;1.00;;;;;;5062238;22;20544;-77
2021/04/08 11:35:31;;;;;;;2.77;2.20;;;13.10;1.00;;;;;;5073573;28;20448;-78
2021/04/08 11:38:14;;;;;;;3.13;1.87;;;13.30;1.00;;;;;;5080188;28;20725;-76
2021/04/08 11:40:44;;;;;;;4.00;2.17;;;12.90;1.00;;;;;;5070907;28;20419;-75
2021/04/08 11:43:22;;;;;;;6.23;1.80;;;12.40;1.00;;;;;;5080191;28;20443;-74
2021/04/08 11:45:49;;;;;;;4.27;2.20;;;11.90;1.00;;;;;;5089953;28;20449;-77
2021/04/08 11:48:21;;;;;;;5.82;2.20;;;11.50;1.00;;;;;;5067971;28;20407;-77
2021/04/08 11:50:52;;;;;;;3.35;2.38;;;11.20;1.00;;;;;;5062637;28;20214;-76
2021/04/08 11:53:31;;;;;;;3.47;2.30;;;11.00;1.00;;;;;;5089229;27;20226;-76
2021/04/08 11:55:59;;;;;;;3.10;2.40;;;10.80;1.00;;;;;;5059140;28;20238;-77
2021/04/08 11:58:27;;;;;;;5.82;2.10;;;10.70;1.00;;;;;;5086534;28;20233;-76
2021/04/08 12:01:06;;;;;;;4.28;2.25;;;10.50;1.00;;;;;;5072721;28;20216;-75
2021/04/08 12:03:36;;;;;;;5.53;2.53;;;10.30;1.00;;;;;;5081850;28;20278;-76
2021/04/08 12:06:12;;;;;;;6.93;1.92;;;9.90;1.00;;;;;;5054424;28;20236;-77
2021/04/08 12:08:44;;;;;;;4.78;1.52;;;9.70;1.00;;;;;;5089789;27;20216;-77
2021/04/08 12:11:17;;;;;;;5.45;1.95;;;9.50;1.00;;;;;;5053722;28;20233;-76
2021/04/08 12:13:47;;;;;;;4.93;1.60;;;9.40;1.00;;;;;;5084348;28;20234;-76
2021/04/08 12:16:24;;;;;;;3.15;2.20;;;9.30;1.00;;;;;;5051969;28;20281;-76
2021/04/08 12:18:51;;;;;;;3.17;1.50;;;9.50;1.00;;;;;;5085251;28;20228;-75
2021/04/08 12:21:19;;;;;;;4.18;1.85;;;10.00;1.00;;;;;;5073992;28;20232;-79
2021/04/08 12:23:46;;;;;;;3.78;1.63;;;10.60;1.00;;;;;;5085912;28;20226;-81
2021/04/08 12:26:29;;;;;;;4.88;2.50;;;10.50;1.00;;;;;;5061961;28;20292;-81
2021/04/08 12:28:56;;;;;;;3.08;2.30;;;10.10;1.00;;;;;;5087315;28;20248;-81
2021/04/08 12:31:25;;;;;;;5.65;2.28;;;9.60;1.00;;;;;;5075821;28;20221;-82
2021/04/08 12:33:52;;;;;;;9.80;2.03;;;9.40;1.00;;;;;;5057907;28;20231;-78
2021/04/08 12:36:23;;;;;;;4.35;1.80;;;10.00;1.00;;;;;;5068827;28;20221;-78
2021/04/08 12:38:49;;;;;;;3.60;1.80;;;10.90;1.00;;;;;;5074924;28;20230;-80
2021/04/08 12:41:17;;;;;;;4.00;1.60;;;12.30;1.00;;;;;;5057011;28;20493;-78
2021/04/08 12:43:43;;;;;;;2.33;1.53;;;14.20;1.00;;;;;;5074306;28;20937;-80
2021/04/08 12:46:09;;;;;;;5.60;2.63;;;14.30;1.00;;;;;;5057253;28;20501;-80
2021/04/08 12:48:36;;;;;;;5.20;1.87;;;13.40;1.00;;;;;;5077106;28;20423;-80
2021/04/08 12:51:03;;;;;;;5.40;1.93;;;12.40;1.00;;;;;;5066859;28;20456;-83
2021/04/08 12:53:30;;;;;;;3.97;1.70;;;11.60;1.00;;;;;;5078376;28;20420;-83
2021/04/08 12:56:01;;;;;;;3.72;2.10;;;11.10;1.00;;;;;;5066495;28;20234;-81
2021/04/08 12:58:29;;;;;;;6.32;1.80;;;10.60;1.00;;;;;;5063483;28;20247;-82
2021/04/08 13:00:56;;;;;;;4.63;1.90;;;10.10;1.00;;;;;;5084804;28;20210;-80
2021/04/08 13:03:24;;;;;;;4.43;1.80;;;9.90;1.00;;;;;;5064925;28;20221;-80
2021/04/08 13:05:50;;;;;;;2.42;2.13;;;9.80;1.00;;;;;;5069952;28;20237;-80
2021/04/08 13:08:19;;;;;;;3.17;1.48;;;9.90;1.00;;;;;;5069975;28;20662;-82
2021/04/08 13:10:49;;;;;;;6.97;3.03;;;10.30;1.00;;;;;;5076596;28;20215;-80